Time;durP1;ratioP1;P1;durP2;ratioP2;P2;SDS_P1;SDS_P2;PMS_P1;PMS_P2;Temp;Humidity;BMP_temperature;BMP_pressure;BME280_temperature;BME280_humidity;BME280_pressure;Samples;Min_cycle;Max_cycle;Signal;HPM_P1;HPM_P2
2023/07/06 00:01:42;;;;;;;12.13;4.97;;;26.30;82.60;;;;;;6215970;23;20500;-71
2023/07/06 00:04:09;;;;;;;9.20;4.35;;;26.30;82.80;;;;;;6215766;23;20004;-71
2023/07/06 00:06:36;;;;;;;8.68;4.63;;;26.30;82.70;;;;;;6215841;23;19996;-71
2023/07/06 00:09:05;;;;;;;10.77;4.60;;;26.30;82.90;;;;;;6216120;23;20086;-71
2023/07/06 00:11:39;;;;;;;11.23;4.38;;;26.30;83.10;;;;;;6215817;23;20001;-71
2023/07/06 00:14:07;;;;;;;12.25;5.20;;;26.30;82.80;;;;;;6215871;23;20004;-71
2023/07/06 00:16:33;;;;;;;11.95;4.95;;;26.30;82.90;;;;;;6215840;23;19997;-71
2023/07/06 00:18:59;;;;;;;11.40;5.35;;;26.30;83.10;;;;;;6215755;23;20331;-71
2023/07/06 00:21:27;;;;;;;10.32;4.88;;;26.20;83.60;;;;;;6215952;23;20080;-71
2023/07/06 00:23:52;;;;;;;9.05;4.75;;;26.20;83.70;;;;;;6215755;23;20054;-71
2023/07/06 00:26:20;;;;;;;12.85;4.50;;;26.10;84.30;;;;;;6214103;23;20008;-71
2023/07/06 00:28:49;;;;;;;10.60;5.07;;;26.10;84.20;;;;;;6215558;23;20450;-72
2023/07/06 00:31:21;;;;;;;13.13;5.38;;;26.10;84.40;;;;;;6215296;23;20024;-71
2023/07/06 00:33:52;;;;;;;9.20;4.70;;;26.10;84.90;;;;;;6215176;23;20004;-70
2023/07/06 00:36:17;;;;;;;12.32;5.05;;;26.00;85.00;;;;;;6215348;23;20008;-70
2023/07/06 00:38:44;;;;;;;11.20;4.78;;;26.00;85.30;;;;;;6215190;23;20005;-71
2023/07/06 00:41:12;;;;;;;14.00;5.43;;;26.00;85.40;;;;;;6213504;23;20377;-70
2023/07/06 00:43:52;;;;;;;10.85;5.32;;;25.90;85.60;;;;;;6215227;23;20058;-71
2023/07/06 00:46:19;;;;;;;14.63;5.68;;;25.90;85.90;;;;;;6215463;23;20008;-72
2023/07/06 00:48:46;;;;;;;13.15;6.45;;;25.90;85.90;;;;;;6215277;23;20008;-71
2023/07/06 00:51:17;;;;;;;14.63;5.95;;;25.90;86.20;;;;;;6215560;23;20327;-71
2023/07/06 00:53:56;;;;;;;11.82;5.30;;;25.90;86.50;;;;;;6215091;23;20061;-70
2023/07/06 00:56:27;;;;;;;12.02;5.55;;;25.90;86.30;;;;;;6215338;23;20449;-70
2023/07/06 00:58:55;;;;;;;14.90;4.82;;;25.90;86.30;;;;;;6216071;23;20004;-71
2023/07/06 01:01:23;;;;;;;10.48;4.95;;;25.90;86.30;;;;;;6215282;23;20024;-70
2023/07/06 01:03:53;;;;;;;16.60;5.38;;;25.90;86.50;;;;;;6215329;23;20013;-71
2023/07/06 01:06:27;;;;;;;11.73;5.25;;;25.90;86.20;;;;;;6215242;23;19996;-71
2023/07/06 01:08:54;;;;;;;12.68;4.95;;;25.90;86.40;;;;;;6215114;23;20016;-72
2023/07/06 01:11:20;;;;;;;12.50;4.72;;;25.90;86.30;;;;;;6215343;23;20004;-71
2023/07/06 01:13:52;;;;;;;10.07;5.13;;;25.90;86.30;;;;;;6213581;23;20008;-71
2023/07/06 01:16:32;;;;;;;13.18;5.80;;;25.90;86.50;;;;;;6215012;23;20039;-71
2023/07/06 01:19:36;;;;;;;9.70;5.05;;;26.00;86.50;;;;;;6214709;23;20310;-69
2023/07/06 01:22:04;;;;;;;13.00;5.53;;;25.90;87.10;;;;;;6214834;23;20004;-70
2023/07/06 01:24:56;;;;;;;14.00;5.43;;;25.90;86.50;;;;;;6215402;23;20099;-71
2023/07/06 01:27:49;;;;;;;11.32;5.00;;;25.90;87.20;;;;;;6215133;23;20017;-70
2023/07/06 01:30:47;;;;;;;15.57;5.47;;;25.90;87.20;;;;;;6212927;23;20027;-71
2023/07/06 01:33:36;;;;;;;10.98;5.70;;;25.90;87.50;;;;;;6214791;23;20000;-70
2023/07/06 01:36:14;;;;;;;10.30;5.00;;;25.90;87.50;;;;;;6215322;23;20005;-71
2023/07/06 01:38:41;;;;;;;11.30;5.30;;;25.80;87.20;;;;;;6215300;23;20001;-70
2023/07/06 01:41:07;;;;;;;12.25;5.53;;;25.80;87.30;;;;;;6215061;23;20013;-71
2023/07/06 01:43:33;;;;;;;11.82;5.07;;;25.80;87.50;;;;;;6214676;23;20008;-71
2023/07/06 01:45:59;;;;;;;13.40;5.88;;;25.70;87.80;;;;;;6214963;23;20517;-69
2023/07/06 01:48:25;;;;;;;10.63;5.10;;;25.70;88.60;;;;;;6214805;23;20043;-71
2023/07/06 01:50:57;;;;;;;11.80;5.85;;;25.70;88.00;;;;;;6214709;23;20000;-69
2023/07/06 01:53:41;;;;;;;15.15;6.15;;;25.70;88.50;;;;;;6214691;23;20020;-70
2023/07/06 01:56:29;;;;;;;12.35;6.00;;;25.80;88.70;;;;;;6214431;23;20008;-71
2023/07/06 01:59:03;;;;;;;10.10;5.15;;;25.70;88.20;;;;;;6213851;23;20020;-71
2023/07/06 02:01:32;;;;;;;;;;;25.70;88.80;;;;;;6215257;23;20012;-70
2023/07/06 02:04:00;;;;;;;13.23;5.68;;;25.70;88.60;;;;;;6214711;23;20029;-70
2023/07/06 02:06:26;;;;;;;14.52;6.13;;;25.70;88.40;;;;;;6213122;23;20112;-71
2023/07/06 02:08:51;;;;;;;17.15;5.40;;;25.70;89.20;;;;;;6212077;23;20438;-71
2023/07/06 02:11:24;;;;;;;10.38;5.00;;;25.70;88.70;;;;;;6213839;23;20005;-71
2023/07/06 02:13:50;;;;;;;9.65;5.30;;;25.70;88.70;;;;;;6214549;23;20012;-70
2023/07/06 02:16:16;;;;;;;12.77;5.63;;;25.70;88.50;;;;;;6214863;23;20088;-71
2023/07/06 02:18:42;;;;;;;13.40;5.47;;;25.70;88.50;;;;;;6214516;23;20441;-70
2023/07/06 02:21:09;;;;;;;12.63;5.97;;;25.70;88.30;;;;;;6214649;23;20068;-71
2023/07/06 02:23:35;;;;;;;15.23;5.50;;;25.70;88.10;;;;;;6214323;23;20078;-70
2023/07/06 02:26:01;;;;;;;11.70;5.15;;;25.70;88.10;;;;;;6214222;23;19996;-71
2023/07/06 02:28:27;;;;;;;11.93;5.05;;;25.70;88.10;;;;;;6214518;23;20043;-71
2023/07/06 02:30:53;;;;;;;10.98;4.90;;;25.60;88.00;;;;;;6214240;23;20403;-71
2023/07/06 02:33:19;;;;;;;11.02;5.70;;;25.60;88.00;;;;;;6214440;23;19996;-71
2023/07/06 02:35:48;;;;;;;12.95;5.97;;;25.50;88.00;;;;;;6212908;23;20083;-71
2023/07/06 02:38:18;;;;;;;12.93;5.65;;;25.50;88.10;;;;;;6214406;23;20082;-70
2023/07/06 02:40:45;;;;;;;13.55;5.95;;;25.50;88.50;;;;;;6214442;23;19997;-71
2023/07/06 02:43:12;;;;;;;14.80;6.20;;;25.50;87.90;;;;;;6214617;23;20032;-71
2023/07/06 02:45:38;;;;;;;11.82;5.53;;;25.40;87.20;;;;;;6214464;23;20056;-70
2023/07/06 02:48:04;;;;;;;10.90;5.97;;;25.40;87.00;;;;;;6214303;23;20017;-70
2023/07/06 02:50:30;;;;;;;10.68;6.20;;;25.40;86.50;;;;;;6214548;23;20039;-70
2023/07/06 02:52:57;;;;;;;12.15;5.85;;;25.30;86.30;;;;;;6214047;23;20083;-71
2023/07/06 02:55:23;;;;;;;11.57;5.65;;;25.30;86.00;;;;;;6214646;23;20028;-71
2023/07/06 02:57:49;;;;;;;13.05;5.57;;;25.20;85.60;;;;;;6214857;23;20005;-71
2023/07/06 03:00:16;;;;;;;11.73;5.65;;;25.20;84.80;;;;;;6214586;23;20362;-71
2023/07/06 03:02:43;;;;;;;11.90;5.60;;;25.20;84.40;;;;;;6214383;23;20011;-71
2023/07/06 03:05:11;;;;;;;10.70;6.32;;;25.10;84.00;;;;;;6214636;23;20043;-69
2023/07/06 03:07:41;;;;;;;12.15;5.40;;;25.10;84.00;;;;;;6215882;23;20032;-71
2023/07/06 03:10:08;;;;;;;11.30;5.80;;;25.10;83.60;;;;;;6216295;23;20008;-71
2023/07/06 03:12:38;;;;;;;11.13;5.25;;;25.10;83.70;;;;;;6216290;23;20686;-71
2023/07/06 03:15:12;;;;;;;13.27;5.72;;;25.00;83.20;;;;;;6216418;23;20001;-71
2023/07/06 03:17:39;;;;;;;12.55;5.57;;;25.10;83.20;;;;;;6216535;23;20016;-71
2023/07/06 03:20:14;;;;;;;12.82;5.72;;;25.00;82.70;;;;;;6216452;23;20054;-72
2023/07/06 03:22:48;;;;;;;13.32;5.43;;;25.10;82.80;;;;;;6216311;23;20011;-71
2023/07/06 03:25:15;;;;;;;13.20;5.88;;;25.10;82.00;;;;;;6215859;23;20000;-72
2023/07/06 03:27:42;;;;;;;13.57;5.60;;;25.10;81.60;;;;;;6233477;23;20064;-72
2023/07/06 03:30:10;;;;;;;10.93;5.60;;;25.00;81.50;;;;;;6219885;23;19997;-70
2023/07/06 03:32:37;;;;;;;10.88;5.10;;;25.00;81.70;;;;;;6216284;23;20001;-70
2023/07/06 03:35:12;;;;;;;12.02;5.32;;;25.00;81.50;;;;;;6216241;23;20334;-70
2023/07/06 03:37:41;;;;;;;11.18;5.57;;;25.00;81.20;;;;;;6215530;23;20013;-70
2023/07/06 03:40:11;;;;;;;9.88;5.03;;;25.00;80.60;;;;;;6215865;23;20001;-70
2023/07/06 03:42:41;;;;;;;9.60;5.10;;;24.90;80.90;;;;;;6215848;23;20001;-71
2023/07/06 03:45:08;;;;;;;8.13;4.68;;;24.90;80.10;;;;;;6216167;23;20407;-71
2023/07/06 03:47:35;;;;;;;11.15;5.55;;;24.80;79.70;;;;;;6215619;23;20012;-70
2023/07/06 03:50:00;;;;;;;17.75;5.40;;;24.80;79.80;;;;;;6215692;23;20038;-72
2023/07/06 03:52:28;;;;;;;14.15;5.30;;;24.70;79.60;;;;;;6215735;23;20498;-70
2023/07/06 03:54:54;;;;;;;13.20;5.25;;;24.70;80.10;;;;;;6215519;23;20009;-71
2023/07/06 03:57:20;;;;;;;10.70;5.82;;;24.70;79.80;;;;;;6215500;23;20015;-70
2023/07/06 03:59:46;;;;;;;11.85;5.10;;;24.80;79.70;;;;;;6215822;23;20001;-70
2023/07/06 04:02:12;;;;;;;9.57;5.72;;;24.80;79.60;;;;;;6215733;23;20003;-70
2023/07/06 04:04:39;;;;;;;16.48;5.43;;;24.70;79.30;;;;;;6216000;23;20008;-70
2023/07/06 04:07:07;;;;;;;8.88;5.55;;;24.70;79.30;;;;;;6215848;23;19996;-70
2023/07/06 04:09:33;;;;;;;11.18;5.95;;;24.70;79.10;;;;;;6215582;23;20012;-71
2023/07/06 04:12:00;;;;;;;12.15;5.80;;;24.70;78.90;;;;;;6215487;23;19996;-69
2023/07/06 04:14:26;;;;;;;11.98;5.30;;;24.70;78.90;;;;;;6215560;23;20335;-71
2023/07/06 04:16:54;;;;;;;11.95;5.45;;;24.70;79.00;;;;;;6215447;23;20003;-70
2023/07/06 04:19:21;;;;;;;13.88;5.78;;;24.70;78.70;;;;;;6215364;23;19997;-71
2023/07/06 04:21:48;;;;;;;12.82;5.85;;;24.70;78.50;;;;;;6213516;23;20013;-71
2023/07/06 04:24:13;;;;;;;11.45;5.30;;;24.70;78.70;;;;;;6215412;23;20000;-71
2023/07/06 04:26:45;;;;;;;13.65;5.80;;;24.70;78.70;;;;;;6213450;23;20357;-70
2023/07/06 04:29:11;;;;;;;14.15;5.85;;;24.80;78.40;;;;;;6215704;23;20071;-71
2023/07/06 04:31:37;;;;;;;10.88;5.57;;;24.60;78.70;;;;;;6215225;23;20087;-70
2023/07/06 04:34:04;;;;;;;13.70;5.35;;;24.60;78.80;;;;;;6215516;23;20000;-71
2023/07/06 04:36:32;;;;;;;12.35;6.05;;;24.50;78.90;;;;;;6215369;23;20019;-71
2023/07/06 04:38:59;;;;;;;12.52;5.78;;;24.50;79.00;;;;;;6215266;23;20005;-70
2023/07/06 04:41:26;;;;;;;13.13;5.30;;;24.60;78.70;;;;;;6215337;23;19996;-70
2023/07/06 04:43:52;;;;;;;10.75;4.55;;;24.60;78.70;;;;;;6215163;23;20005;-70
2023/07/06 04:46:20;;;;;;;10.05;5.22;;;24.60;78.60;;;;;;6215322;23;20032;-70
2023/07/06 04:48:47;;;;;;;10.65;4.78;;;24.60;78.50;;;;;;6215193;23;20446;-70
2023/07/06 04:51:14;;;;;;;10.82;5.55;;;24.60;78.30;;;;;;6215258;23;20068;-70
2023/07/06 04:53:40;;;;;;;11.32;5.25;;;24.70;78.30;;;;;;6215462;23;20012;-70
2023/07/06 04:56:07;;;;;;;14.95;6.00;;;24.70;77.80;;;;;;6215149;23;20001;-71
2023/07/06 04:58:32;;;;;;;10.13;5.07;;;24.70;77.80;;;;;;6215254;23;20051;-71
2023/07/06 05:01:04;;;;;;;12.05;5.60;;;24.80;77.90;;;;;;6215674;23;20000;-72
2023/07/06 05:03:30;;;;;;;9.52;4.80;;;24.80;77.40;;;;;;6215627;23;20030;-70
2023/07/06 05:06:05;;;;;;;9.48;5.05;;;24.80;77.50;;;;;;6215019;23;20442;-71
2023/07/06 05:08:32;;;;;;;11.25;5.47;;;24.80;78.00;;;;;;6214944;23;20044;-70
2023/07/06 05:10:58;;;;;;;10.48;5.53;;;24.80;77.60;;;;;;6214933;23;20367;-71
2023/07/06 05:13:24;;;;;;;13.35;5.13;;;24.80;77.20;;;;;;6215433;23;20009;-70
2023/07/06 05:15:51;;;;;;;11.88;4.78;;;25.00;77.20;;;;;;6215541;23;20487;-71
2023/07/06 05:18:19;;;;;;;11.95;4.85;;;25.00;76.60;;;;;;6215079;23;20062;-69
2023/07/06 05:20:48;;;;;;;10.38;4.80;;;25.20;76.10;;;;;;6214954;23;20722;-70
2023/07/06 05:23:14;;;;;;;10.70;4.68;;;25.40;75.70;;;;;;6215186;23;20075;-70
2023/07/06 05:25:40;;;;;;;11.40;4.75;;;25.70;75.10;;;;;;6215971;23;19996;-71
2023/07/06 05:28:06;;;;;;;9.77;4.88;;;26.00;74.50;;;;;;6215750;23;20067;-72
2023/07/06 05:30:32;;;;;;;11.38;5.80;;;26.30;73.20;;;;;;6214320;23;20026;-71
2023/07/06 05:32:57;;;;;;;11.88;5.30;;;26.80;72.30;;;;;;6215061;23;20001;-71
2023/07/06 05:35:23;;;;;;;8.88;4.50;;;27.10;71.10;;;;;;6214964;23;20005;-71
2023/07/06 05:37:49;;;;;;;11.40;4.80;;;27.40;70.60;;;;;;6215183;23;20032;-71
2023/07/06 05:40:15;;;;;;;9.18;5.10;;;27.70;69.80;;;;;;6214860;23;20453;-71
2023/07/06 05:42:41;;;;;;;10.13;4.90;;;28.00;69.30;;;;;;6214658;23;20015;-71
2023/07/06 05:45:08;;;;;;;10.73;5.05;;;28.40;68.40;;;;;;6214725;23;20047;-72
2023/07/06 05:47:34;;;;;;;7.93;4.90;;;28.80;67.50;;;;;;6214688;23;20009;-70
2023/07/06 05:49:59;;;;;;;11.15;5.65;;;29.10;66.60;;;;;;6214754;23;20043;-70
2023/07/06 05:52:27;;;;;;;13.32;5.10;;;29.40;65.90;;;;;;6214746;23;19997;-71
2023/07/06 05:54:53;;;;;;;17.60;5.65;;;29.70;65.10;;;;;;6214889;23;20015;-71
2023/07/06 05:57:19;;;;;;;13.93;5.15;;;30.00;64.10;;;;;;6212785;23;20016;-71
2023/07/06 05:59:46;;;;;;;11.20;5.00;;;30.30;64.00;;;;;;6214617;23;20011;-70
2023/07/06 06:02:16;;;;;;;12.30;5.30;;;30.50;62.90;;;;;;6214710;23;20003;-72
2023/07/06 06:04:42;;;;;;;11.52;4.72;;;30.40;62.70;;;;;;6214574;23;20032;-71
2023/07/06 06:07:09;;;;;;;15.05;5.50;;;30.50;62.60;;;;;;6214835;23;20000;-73
2023/07/06 06:09:35;;;;;;;14.80;5.03;;;30.50;62.40;;;;;;6214700;23;20021;-73
2023/07/06 06:12:04;;;;;;;12.40;5.03;;;30.70;62.40;;;;;;6214942;23;19996;-80
2023/07/06 06:14:30;;;;;;;12.23;4.78;;;30.70;61.70;;;;;;6215430;23;20430;-75
2023/07/06 06:16:56;;;;;;;11.48;4.97;;;31.00;61.30;;;;;;6214263;23;20001;-75
2023/07/06 06:19:23;;;;;;;13.60;4.60;;;31.00;61.30;;;;;;6214183;23;20100;-75
2023/07/06 06:21:49;;;;;;;9.02;4.60;;;31.20;61.20;;;;;;6214263;23;19997;-75
2023/07/06 06:24:15;;;;;;;11.98;5.82;;;31.40;60.90;;;;;;6214603;23;20008;-72
2023/07/06 06:26:42;;;;;;;10.85;5.28;;;31.50;60.30;;;;;;6214389;23;19997;-72
2023/07/06 06:29:09;;;;;;;12.23;5.18;;;31.70;59.90;;;;;;6214357;23;20112;-74
2023/07/06 06:31:36;;;;;;;11.77;4.60;;;31.80;59.60;;;;;;6213624;23;20013;-73
2023/07/06 06:34:02;;;;;;;10.05;5.05;;;31.80;59.40;;;;;;6212031;23;20031;-72
2023/07/06 06:36:28;;;;;;;10.80;4.18;;;31.90;59.10;;;;;;6214210;23;20450;-71
2023/07/06 06:38:54;;;;;;;10.75;4.55;;;31.80;59.50;;;;;;6214153;23;20109;-73
2023/07/06 06:41:21;;;;;;;11.10;5.05;;;31.90;59.60;;;;;;6214924;23;19997;-74
2023/07/06 06:43:47;;;;;;;13.82;4.53;;;32.00;59.30;;;;;;6216050;23;20015;-74
2023/07/06 06:46:14;;;;;;;10.60;5.43;;;32.20;58.90;;;;;;6216169;23;19997;-75
2023/07/06 06:48:40;;;;;;;13.80;5.35;;;32.40;58.60;;;;;;6216003;23;20040;-74
2023/07/06 06:51:10;;;;;;;16.50;6.20;;;32.50;58.20;;;;;;6215960;23;20004;-75
2023/07/06 06:53:39;;;;;;;14.13;6.43;;;32.40;58.20;;;;;;6216222;23;20004;-74
2023/07/06 06:56:06;;;;;;;15.27;5.78;;;32.50;58.10;;;;;;6216066;23;20055;-74
2023/07/06 06:58:32;;;;;;;10.60;4.70;;;32.60;58.00;;;;;;6216478;23;20016;-74
2023/07/06 07:01:00;;;;;;;12.20;4.55;;;32.60;58.00;;;;;;6215716;23;20049;-74
2023/07/06 07:03:28;;;;;;;12.52;4.90;;;32.50;58.20;;;;;;6216276;23;20001;-76
2023/07/06 07:06:11;;;;;;;11.77;4.30;;;32.60;58.20;;;;;;6215929;23;20004;-77
2023/07/06 07:08:44;;;;;;;13.15;4.30;;;32.70;58.10;;;;;;6216097;23;20021;-76
2023/07/06 07:11:11;;;;;;;13.40;4.55;;;32.40;58.60;;;;;;6216135;23;20004;-76
2023/07/06 07:13:38;;;;;;;11.07;5.00;;;32.30;58.70;;;;;;6214640;23;19997;-75
2023/07/06 07:16:05;;;;;;;11.43;4.78;;;32.40;58.50;;;;;;6215323;23;20082;-74
2023/07/06 07:18:33;;;;;;;12.93;4.63;;;32.40;58.60;;;;;;6215885;23;19997;-75
2023/07/06 07:21:01;;;;;;;13.75;4.10;;;32.30;58.50;;;;;;6217002;23;20004;-75
2023/07/06 07:23:40;;;;;;;9.77;4.50;;;32.40;58.20;;;;;;6214122;23;20095;-74
2023/07/06 07:26:07;;;;;;;8.23;4.30;;;32.60;58.00;;;;;;6216265;23;20020;-75
2023/07/06 07:28:33;;;;;;;9.93;4.15;;;32.70;57.60;;;;;;6217164;23;20016;-74
2023/07/06 07:31:01;;;;;;;8.77;3.70;;;32.60;56.90;;;;;;6216691;23;20070;-75
2023/07/06 07:33:28;;;;;;;9.48;4.15;;;32.60;56.90;;;;;;6215809;23;20005;-75
2023/07/06 07:35:57;;;;;;;8.70;4.47;;;32.60;56.70;;;;;;6215919;23;20000;-76
2023/07/06 07:38:23;;;;;;;11.20;4.50;;;32.70;56.90;;;;;;6215758;23;20001;-76
2023/07/06 07:40:57;;;;;;;12.57;4.60;;;32.70;56.90;;;;;;6215911;23;20000;-75
2023/07/06 07:43:27;;;;;;;7.85;3.72;;;32.80;56.70;;;;;;6215995;23;20000;-73
2023/07/06 07:46:06;;;;;;;9.98;4.30;;;32.80;56.60;;;;;;6214043;23;20092;-74
2023/07/06 07:48:39;;;;;;;11.32;4.43;;;32.80;56.20;;;;;;6215654;23;20009;-76
2023/07/06 07:51:08;;;;;;;9.35;4.85;;;32.80;56.20;;;;;;6215813;23;20441;-74
2023/07/06 07:53:37;;;;;;;9.52;4.80;;;32.70;56.30;;;;;;6215289;23;20422;-76
2023/07/06 07:56:04;;;;;;;11.13;4.82;;;32.70;56.20;;;;;;6215466;23;20019;-75
2023/07/06 07:58:33;;;;;;;11.50;5.00;;;32.60;56.00;;;;;;6215954;23;20040;-76
2023/07/06 08:01:00;;;;;;;13.02;5.50;;;32.50;56.40;;;;;;6215241;23;20080;-72
2023/07/06 08:03:27;;;;;;;44.20;9.13;;;32.40;56.60;;;;;;6215721;23;19997;-74
2023/07/06 08:05:57;;;;;;;21.88;5.82;;;32.40;57.50;;;;;;6215761;23;20005;-73
2023/07/06 08:08:23;;;;;;;9.60;4.45;;;32.30;57.10;;;;;;6215803;23;20009;-73
2023/07/06 08:10:50;;;;;;;14.73;5.65;;;32.20;57.10;;;;;;6215366;23;20012;-72
2023/07/06 08:13:17;;;;;;;11.35;5.13;;;32.10;57.30;;;;;;6215416;23;20407;-72
2023/07/06 08:15:44;;;;;;;11.60;4.53;;;32.10;57.70;;;;;;6215269;23;20023;-73
2023/07/06 08:18:10;;;;;;;14.25;5.10;;;32.00;58.00;;;;;;6215123;23;20003;-72
2023/07/06 08:20:37;;;;;;;10.70;5.03;;;32.00;58.10;;;;;;6215077;23;20027;-73
2023/07/06 08:23:06;;;;;;;15.90;5.30;;;31.90;58.10;;;;;;6215050;23;20001;-72
2023/07/06 08:25:42;;;;;;;12.55;5.00;;;31.80;58.40;;;;;;6215185;23;20031;-73
2023/07/06 08:28:10;;;;;;;10.82;4.82;;;31.80;58.70;;;;;;6214971;23;20003;-74
2023/07/06 08:30:40;;;;;;;12.07;4.75;;;31.60;58.90;;;;;;6214506;23;20350;-74
2023/07/06 08:33:09;;;;;;;9.65;4.10;;;31.50;58.90;;;;;;6214829;23;20075;-71
2023/07/06 08:35:39;;;;;;;8.60;4.32;;;31.40;58.90;;;;;;6214728;23;20068;-71
2023/07/06 08:38:05;;;;;;;17.55;4.90;;;31.30;59.10;;;;;;6214732;23;20390;-73
2023/07/06 08:40:32;;;;;;;14.10;4.43;;;31.30;59.40;;;;;;6214396;23;20079;-72
2023/07/06 08:43:00;;;;;;;14.30;4.45;;;31.20;59.60;;;;;;6214667;23;20000;-71
2023/07/06 08:45:42;;;;;;;12.38;3.95;;;31.20;59.60;;;;;;6214744;23;19996;-75
2023/07/06 08:48:13;;;;;;;22.00;5.57;;;31.10;59.30;;;;;;6215090;23;20449;-71
2023/07/06 08:50:42;;;;;;;23.38;6.18;;;31.10;60.10;;;;;;6214995;23;20465;-73
2023/07/06 08:53:13;;;;;;;15.68;5.25;;;31.00;60.50;;;;;;6213040;23;20008;-75
2023/07/06 08:55:39;;;;;;;15.60;4.15;;;31.00;60.80;;;;;;6214920;23;20001;-72
2023/07/06 08:58:05;;;;;;;38.30;6.40;;;30.90;60.30;;;;;;6214803;23;20008;-73
2023/07/06 09:00:31;;;;;;;12.20;4.30;;;30.90;60.70;;;;;;6215052;23;20018;-76
2023/07/06 09:03:08;;;;;;;29.90;6.18;;;30.90;60.80;;;;;;6215018;23;20001;-75
2023/07/06 09:05:43;;;;;;;17.35;5.35;;;30.90;62.20;;;;;;6215340;23;20008;-72
2023/07/06 09:08:13;;;;;;;8.07;4.28;;;30.90;62.30;;;;;;6214498;23;20312;-75
2023/07/06 09:10:38;;;;;;;11.20;4.32;;;30.90;61.90;;;;;;6214906;23;20028;-77
2023/07/06 09:13:24;;;;;;;26.90;5.65;;;30.90;62.00;;;;;;6214642;23;20004;-74
2023/07/06 09:16:01;;;;;;;11.15;4.63;;;30.90;62.60;;;;;;6215118;23;20442;-76
2023/07/06 09:18:29;;;;;;;17.73;6.32;;;31.00;62.60;;;;;;6217011;23;20032;-76
2023/07/06 09:20:57;;;;;;;11.75;5.05;;;31.10;62.80;;;;;;6216386;23;20011;-76
2023/07/06 09:23:24;;;;;;;15.63;5.70;;;31.10;64.00;;;;;;6215366;23;20000;-76
2023/07/06 09:25:50;;;;;;;24.42;6.75;;;31.10;64.60;;;;;;6216741;23;20035;-74
2023/07/06 09:28:29;;;;;;;11.63;5.22;;;31.10;64.10;;;;;;6213283;23;20017;-76
2023/07/06 09:31:33;;;;;;;10.52;4.80;;;31.00;64.00;;;;;;6214784;23;20020;-76
2023/07/06 09:33:58;;;;;;;;;;;31.00;64.40;;;;;;6094573;23;20014;-78
2023/07/06 09:36:27;;;;;;;7.18;4.22;;;30.90;64.00;;;;;;6093513;23;19925;-76
2023/07/06 09:39:00;;;;;;;7.50;3.22;;;30.90;64.20;;;;;;6153494;23;20008;-74
2023/07/06 09:41:27;;;;;;;10.18;3.80;;;30.80;63.60;;;;;;6215726;23;20012;-78
2023/07/06 09:43:57;;;;;;;9.88;4.25;;;30.70;63.80;;;;;;6215998;23;20323;-80
2023/07/06 09:46:27;;;;;;;7.55;4.30;;;30.80;63.60;;;;;;6216393;23;20007;-81
2023/07/06 09:48:53;;;;;;;8.02;3.78;;;30.80;63.40;;;;;;6214311;23;20364;-80
2023/07/06 09:51:27;;;;;;;10.57;3.83;;;30.80;63.00;;;;;;6217999;23;19996;-81
2023/07/06 09:54:03;;;;;;;9.50;4.22;;;30.80;63.00;;;;;;6215585;23;20031;-80
2023/07/06 09:56:29;;;;;;;8.02;3.85;;;30.80;63.20;;;;;;6215756;23;20009;-79
2023/07/06 09:58:57;;;;;;;8.82;3.70;;;30.80;63.00;;;;;;6215347;23;20443;-81
2023/07/06 10:01:57;;;;;;;11.02;3.70;;;30.70;63.00;;;;;;6215038;23;20001;-79
2023/07/06 10:04:59;;;;;;;8.70;3.80;;;30.70;63.40;;;;;;6215274;23;20109;-79
2023/07/06 10:07:58;;;;;;;6.80;3.33;;;30.70;63.20;;;;;;6215109;23;20079;-80
2023/07/06 10:10:43;;;;;;;6.82;3.30;;;30.70;62.90;;;;;;6216171;23;20317;-79
2023/07/06 10:13:31;;;;;;;7.28;3.80;;;30.70;62.30;;;;;;6216877;23;20415;-81
2023/07/06 10:16:16;;;;;;;7.28;3.95;;;30.80;62.30;;;;;;6215412;23;20063;-80
2023/07/06 10:18:49;;;;;;;7.13;3.97;;;30.70;61.80;;;;;;6215080;23;20001;-79
2023/07/06 10:21:33;;;;;;;12.98;3.85;;;30.70;61.60;;;;;;6215283;23;20434;-80
2023/07/06 10:24:33;;;;;;;7.13;3.97;;;30.80;61.50;;;;;;6215117;23;20077;-81
2023/07/06 10:27:03;;;;;;;8.73;3.90;;;30.90;61.20;;;;;;6215635;23;20035;-79
2023/07/06 10:29:41;;;;;;;7.43;3.88;;;30.90;60.90;;;;;;6215265;23;20447;-79
2023/07/06 10:32:24;;;;;;;7.10;3.90;;;31.00;60.10;;;;;;6214506;23;20016;-80
2023/07/06 10:35:19;;;;;;;7.15;4.10;;;31.00;59.70;;;;;;6215298;23;20100;-80
2023/07/06 10:37:46;;;;;;;6.82;3.78;;;31.10;59.40;;;;;;6213447;23;20012;-79
2023/07/06 10:40:26;;;;;;;10.70;3.85;;;31.20;59.10;;;;;;6215056;23;20384;-79
2023/07/06 10:43:12;;;;;;;8.82;4.00;;;31.30;59.10;;;;;;6214894;23;20054;-80
2023/07/06 10:45:44;;;;;;;9.60;4.13;;;31.30;59.10;;;;;;6215033;23;20083;-79
2023/07/06 10:48:34;;;;;;;7.15;4.05;;;31.30;58.90;;;;;;6214930;23;20003;-80
2023/07/06 10:51:25;;;;;;;11.18;4.25;;;31.40;59.20;;;;;;6215319;23;20292;-79
2023/07/06 10:54:16;;;;;;;10.75;4.03;;;31.40;59.40;;;;;;6214848;23;20020;-77
2023/07/06 10:56:47;;;;;;;8.27;4.30;;;31.40;59.70;;;;;;6215081;23;20016;-78
2023/07/06 10:59:20;;;;;;;12.65;4.25;;;31.40;59.40;;;;;;6215867;23;20051;-77
2023/07/06 11:01:47;;;;;;;7.07;3.90;;;31.40;59.50;;;;;;6216622;23;20000;-80
2023/07/06 11:04:47;;;;;;;6.70;4.20;;;31.50;59.50;;;;;;6216363;23;20016;-79
2023/07/06 11:07:46;;;;;;;11.65;4.60;;;31.40;59.80;;;;;;6215298;23;20004;-78
2023/07/06 11:10:15;;;;;;;7.82;4.25;;;31.20;60.60;;;;;;6157816;23;20480;-80
2023/07/06 11:12:50;;;;;;;8.52;4.72;;;31.20;60.70;;;;;;6247293;23;20066;-78
2023/07/06 23:30:57;;;;;;;9.48;4.82;;;27.50;68.20;;;;;;6244528;22;20104;-76
2023/07/06 23:33:22;;;;;;;10.35;5.40;;;27.40;68.90;;;;;;6246854;23;20337;-78
2023/07/06 23:35:50;;;;;;;9.30;5.10;;;27.40;69.30;;;;;;6246327;23;20000;-77
2023/07/06 23:38:21;;;;;;;9.52;4.57;;;27.40;69.10;;;;;;6246335;23;20008;-77
2023/07/06 23:40:47;;;;;;;10.20;5.13;;;27.30;69.20;;;;;;6246123;23;20012;-78
2023/07/06 23:43:13;;;;;;;8.43;5.07;;;27.30;69.20;;;;;;6246547;23;20047;-78
2023/07/06 23:45:39;;;;;;;10.45;5.63;;;27.30;69.30;;;;;;6246723;23;20061;-77
2023/07/06 23:48:07;;;;;;;10.25;5.68;;;27.20;69.20;;;;;;6246154;23;20000;-77
2023/07/06 23:50:32;;;;;;;7.57;5.10;;;27.00;69.00;;;;;;6246515;23;20038;-77
2023/07/06 23:52:58;;;;;;;11.82;5.82;;;27.00;69.30;;;;;;6246094;23;19997;-77
2023/07/06 23:55:24;;;;;;;11.68;6.13;;;27.00;68.90;;;;;;6246189;23;20429;-77
2023/07/06 23:57:49;;;;;;;11.93;5.35;;;27.00;68.90;;;;;;6246139;23;20023;-77
